createdAt,value
2022-08-30T00:00:10.328Z,3.13
2022-08-30T00:02:39.893Z,4.47
2022-08-30T00:07:53.597Z,3.70
2022-08-30T00:10:21.509Z,2.28
2022-08-30T00:12:50.774Z,4.30
2022-08-30T00:15:23.144Z,2.58
2022-08-30T00:17:51.208Z,2.28
2022-08-30T00:20:27.035Z,4.63
2022-08-30T00:22:55.732Z,3.92
2022-08-30T00:32:51.578Z,3.28
2022-08-30T00:35:21.610Z,3.58
2022-08-30T00:37:51.023Z,2.83
2022-08-30T00:40:27.239Z,2.40
2022-08-30T00:43:00.487Z,2.55
2022-08-30T00:45:39.724Z,3.78
2022-08-30T00:48:09.673Z,3.75
2022-08-30T00:56:02.466Z,2.95
2022-08-30T00:58:37.050Z,2.47
2022-08-30T01:01:12.821Z,2.03
2022-08-30T01:03:43.348Z,3.90
2022-08-30T01:06:15.448Z,4.80
2022-08-30T01:08:44.726Z,3.83
2022-08-30T01:11:17.982Z,2.95
2022-08-30T01:19:06.661Z,1.38
2022-08-30T01:21:46.468Z,2.85
2022-08-30T01:24:14.849Z,4.32
2022-08-30T01:26:42.326Z,1.63
2022-08-30T01:29:21.243Z,3.78
2022-08-30T01:31:51.680Z,3.72
2022-08-30T01:34:21.485Z,1.63
2022-08-30T01:44:44.180Z,3.17
2022-08-30T01:47:11.730Z,2.75
2022-08-30T01:49:43.437Z,3.80
2022-08-30T01:52:12.722Z,2.88
2022-08-30T01:54:43.183Z,1.83
2022-08-30T01:57:14.973Z,2.05
2022-08-30T01:59:47.458Z,2.88
2022-08-30T02:10:11.892Z,3.35
2022-08-30T02:12:41.502Z,3.10
2022-08-30T02:15:13.837Z,1.97
2022-08-30T02:17:42.314Z,2.50
2022-08-30T02:20:12.309Z,2.25
2022-08-30T02:22:43.419Z,3.30
2022-08-30T02:25:21.008Z,1.77
2022-08-30T02:27:51.829Z,4.53
2022-08-30T02:35:25.896Z,4.82
2022-08-30T02:37:53.932Z,2.15
2022-08-30T02:40:22.196Z,2.40
2022-08-30T02:42:51.454Z,2.95
2022-08-30T02:45:20.735Z,1.90
2022-08-30T02:47:50.006Z,1.73
2022-08-30T02:50:20.163Z,2.75
2022-08-30T02:55:26.247Z,2.33
2022-08-30T02:57:53.654Z,2.67
2022-08-30T03:00:22.073Z,1.63
2022-08-30T03:02:54.121Z,3.58
2022-08-30T03:05:21.759Z,3.47
2022-08-30T03:07:51.602Z,2.53
2022-08-30T03:10:21.001Z,2.17
2022-08-30T03:17:15.496Z,3.95
2022-08-30T03:19:44.828Z,3.75
2022-08-30T03:22:12.910Z,3.03
2022-08-30T03:24:41.725Z,3.33
2022-08-30T03:27:11.169Z,2.78
2022-08-30T03:29:40.825Z,3.85
2022-08-30T03:32:09.606Z,1.40
2022-08-30T03:37:26.854Z,6.20
2022-08-30T03:39:56.576Z,4.03
2022-08-30T03:42:24.828Z,4.30
2022-08-30T03:44:52.376Z,4.22
2022-08-30T03:47:21.600Z,3.03
2022-08-30T03:49:50.867Z,3.08
2022-08-30T03:52:19.817Z,4.88
2022-08-30T03:54:47.817Z,5.18
2022-08-30T04:02:01.568Z,4.57
2022-08-30T04:04:30.995Z,4.68
2022-08-30T04:06:59.875Z,5.88
2022-08-30T04:09:27.357Z,5.03
2022-08-30T04:11:54.736Z,4.32
2022-08-30T04:14:23.200Z,6.07
2022-08-30T04:16:51.933Z,4.50
2022-08-30T04:24:25.000Z,4.88
2022-08-30T04:26:52.448Z,7.72
2022-08-30T04:29:21.101Z,4.30
2022-08-30T04:31:50.119Z,7.20
2022-08-30T04:34:17.466Z,5.72
2022-08-30T04:36:48.487Z,6.32
2022-08-30T04:39:20.253Z,6.45
2022-08-30T04:44:34.812Z,8.43
2022-08-30T04:47:02.323Z,4.65
2022-08-30T04:49:32.853Z,5.25
2022-08-30T04:52:01.737Z,7.28
2022-08-30T04:54:31.014Z,9.35
2022-08-30T04:57:00.296Z,10.63
2022-08-30T04:59:29.855Z,7.40
2022-08-30T05:07:01.603Z,6.88
2022-08-30T05:09:31.036Z,6.13
2022-08-30T05:12:00.334Z,7.60
2022-08-30T05:14:27.909Z,6.53
2022-08-30T05:16:57.156Z,8.55
2022-08-30T05:19:24.614Z,4.75
2022-08-30T05:21:52.049Z,5.63
2022-08-30T05:27:12.041Z,8.60
2022-08-30T05:29:42.370Z,11.32
2022-08-30T05:32:11.814Z,7.72
2022-08-30T05:34:40.616Z,8.52
2022-08-30T05:37:08.479Z,7.00
2022-08-30T05:39:51.292Z,7.55
2022-08-30T05:45:11.337Z,9.38
2022-08-30T05:47:41.771Z,10.70
2022-08-30T05:50:11.663Z,4.93
2022-08-30T05:52:42.081Z,6.53
2022-08-30T05:55:12.514Z,11.10
2022-08-30T05:57:41.964Z,9.50
2022-08-30T06:00:13.643Z,7.15
2022-08-30T06:06:22.549Z,8.10
2022-08-30T06:08:51.922Z,5.47
2022-08-30T06:11:23.492Z,9.05
2022-08-30T06:13:53.395Z,8.23
2022-08-30T06:16:26.118Z,7.10
2022-08-30T06:18:55.425Z,8.80
2022-08-30T06:21:31.595Z,7.40
2022-08-30T06:29:11.182Z,8.88
2022-08-30T06:31:40.466Z,10.68
2022-08-30T06:34:10.103Z,6.53
2022-08-30T06:36:40.648Z,8.70
2022-08-30T06:39:11.430Z,9.15
2022-08-30T06:41:41.592Z,6.70
2022-08-30T06:44:24.218Z,7.80
2022-08-30T06:46:52.410Z,8.45
2022-08-30T06:54:21.829Z,8.23
2022-08-30T06:56:59.069Z,7.90
2022-08-30T06:59:27.696Z,9.25
2022-08-30T07:01:56.147Z,12.20
2022-08-30T07:04:24.176Z,10.80
2022-08-30T07:06:53.116Z,7.72
2022-08-30T07:09:25.033Z,9.77
2022-08-30T07:16:22.763Z,8.55
2022-08-30T07:18:54.738Z,15.17
2022-08-30T07:21:27.469Z,11.00
2022-08-30T07:23:57.357Z,12.30
2022-08-30T07:26:28.232Z,12.35
2022-08-30T07:28:57.751Z,14.98
2022-08-30T07:31:25.753Z,10.45
2022-08-30T07:36:32.974Z,13.88
2022-08-30T07:39:02.259Z,14.95
2022-08-30T07:41:38.353Z,12.93
2022-08-30T07:44:10.789Z,12.43
2022-08-30T07:46:41.950Z,14.05
2022-08-30T07:49:12.851Z,13.30
2022-08-30T07:51:42.723Z,11.35
2022-08-30T07:58:31.025Z,13.07
2022-08-30T08:01:03.513Z,14.25
2022-08-30T08:03:32.502Z,10.88
2022-08-30T08:06:03.957Z,11.48
2022-08-30T08:08:32.337Z,13.57
2022-08-30T08:11:07.575Z,14.73
2022-08-30T08:13:44.648Z,9.50
2022-08-30T08:20:22.859Z,13.38
2022-08-30T08:22:52.226Z,17.77
2022-08-30T08:25:21.612Z,14.77
2022-08-30T08:27:52.155Z,14.32
2022-08-30T08:32:52.074Z,11.57
2022-08-30T08:37:53.977Z,12.63
2022-08-30T08:46:17.811Z,13.75
2022-08-30T08:49:01.410Z,12.73
2022-08-30T08:51:52.534Z,11.23
2022-08-30T08:54:46.696Z,11.20
2022-08-30T08:57:17.038Z,15.38
2022-08-30T08:59:45.958Z,11.82
2022-08-30T09:10:51.990Z,12.93
2022-08-30T09:13:25.244Z,15.63
2022-08-30T09:15:55.284Z,13.50
2022-08-30T09:18:54.868Z,10.55
2022-08-30T09:21:27.656Z,14.43
2022-08-30T09:24:01.921Z,20.33
2022-08-30T09:26:36.691Z,14.77
2022-08-30T09:33:23.689Z,12.70
2022-08-30T09:35:54.120Z,13.43
2022-08-30T09:38:34.794Z,13.95
2022-08-30T09:44:14.174Z,10.10
2022-08-30T09:46:50.735Z,17.27
2022-08-30T09:49:35.820Z,13.25
2022-08-30T09:58:12.845Z,16.27
2022-08-30T10:01:05.139Z,16.00
2022-08-30T10:03:51.993Z,9.38
2022-08-30T10:06:43.018Z,15.98
2022-08-30T10:09:28.590Z,16.13
2022-08-30T10:12:16.428Z,12.25
2022-08-30T10:15:02.070Z,17.27
2022-08-30T10:23:18.224Z,12.75
2022-08-30T10:26:13.985Z,12.93
2022-08-30T10:29:03.501Z,14.15
2022-08-30T10:31:56.904Z,12.65
2022-08-30T10:34:32.028Z,10.85
2022-08-30T10:37:14.070Z,11.25
2022-08-30T10:39:52.385Z,12.40
2022-08-30T10:48:27.260Z,14.43
2022-08-30T10:50:59.872Z,11.43
2022-08-30T10:53:57.907Z,14.90
2022-08-30T10:56:31.873Z,12.63
2022-08-30T10:59:01.644Z,10.88
2022-08-30T11:01:56.584Z,10.30
2022-08-30T11:04:31.524Z,11.90
2022-08-30T11:15:24.999Z,13.52
2022-08-30T11:18:04.397Z,15.00
2022-08-30T11:20:52.348Z,13.93
2022-08-30T11:23:36.214Z,12.40
2022-08-30T11:26:07.750Z,12.63
2022-08-30T11:28:41.130Z,11.20
2022-08-30T11:31:22.462Z,19.40
2022-08-30T11:37:09.826Z,14.30
2022-08-30T11:39:47.284Z,11.75
2022-08-30T11:42:29.315Z,13.00
2022-08-30T11:45:25.324Z,18.40
2022-08-30T11:48:11.882Z,17.55
2022-08-30T11:51:06.936Z,13.93
2022-08-30T11:53:45.484Z,12.93
2022-08-30T12:04:37.369Z,11.60
2022-08-30T12:07:08.046Z,15.85
2022-08-30T12:09:35.726Z,13.93
2022-08-30T12:12:13.801Z,12.57
2022-08-30T12:14:51.977Z,13.38
2022-08-30T12:17:52.221Z,13.25
2022-08-30T12:27:33.339Z,11.57
2022-08-30T12:30:06.990Z,9.90
2022-08-30T12:32:42.992Z,18.67
2022-08-30T12:35:27.997Z,16.70
2022-08-30T12:38:12.461Z,16.58
2022-08-30T12:40:54.249Z,17.08
2022-08-30T12:43:40.280Z,15.90
2022-08-30T12:50:44.282Z,18.48
2022-08-30T12:53:14.346Z,12.18
2022-08-30T12:56:02.335Z,13.80
2022-08-30T12:58:51.782Z,15.70
2022-08-30T13:01:32.562Z,13.43
2022-08-30T13:04:22.404Z,15.05
2022-08-30T13:06:52.929Z,13.40
2022-08-30T13:14:47.097Z,13.68
2022-08-30T13:17:24.333Z,10.80
2022-08-30T13:20:17.602Z,16.73
2022-08-30T13:23:06.385Z,12.85
2022-08-30T13:25:35.297Z,16.67
2022-08-30T13:30:33.363Z,11.43
2022-08-30T13:40:56.910Z,13.38
2022-08-30T13:43:24.625Z,14.55
2022-08-30T13:45:53.087Z,15.82
2022-08-30T13:48:25.066Z,15.50
2022-08-30T13:50:56.952Z,12.70
2022-08-30T13:56:14.266Z,14.60
2022-08-30T14:01:23.257Z,10.70
2022-08-30T14:09:31.904Z,10.30
2022-08-30T14:12:04.093Z,13.30
2022-08-30T14:14:42.641Z,10.80
2022-08-30T14:17:15.424Z,12.27
2022-08-30T14:24:54.145Z,13.70
2022-08-30T14:27:23.322Z,13.77
2022-08-30T14:29:54.372Z,14.05
2022-08-30T14:32:23.734Z,15.40
2022-08-30T14:34:54.537Z,10.85
2022-08-30T14:37:23.353Z,12.40
2022-08-30T14:39:52.832Z,12.82
2022-08-30T14:49:51.645Z,14.93
2022-08-30T14:52:24.343Z,12.25
2022-08-30T14:54:57.495Z,13.32
2022-08-30T14:57:26.130Z,12.93
2022-08-30T14:59:53.498Z,11.60
2022-08-30T15:02:26.924Z,11.10
2022-08-30T15:04:54.661Z,12.38
2022-08-30T15:15:15.518Z,10.13
2022-08-30T15:17:44.619Z,10.68
2022-08-30T15:20:14.279Z,10.95
2022-08-30T15:22:43.308Z,12.50
2022-08-30T15:25:14.733Z,9.43
2022-08-30T15:27:43.528Z,11.15
2022-08-30T15:30:15.004Z,11.50
2022-08-30T15:36:56.742Z,12.45
2022-08-30T15:39:27.545Z,13.80
2022-08-30T15:42:00.915Z,10.48
2022-08-30T15:44:34.445Z,15.32
2022-08-30T15:47:05.410Z,9.85
2022-08-30T15:49:33.513Z,10.40
2022-08-30T15:52:04.723Z,11.48
2022-08-30T15:57:14.424Z,10.10
2022-08-30T15:59:43.693Z,14.67
2022-08-30T16:02:12.545Z,13.15
2022-08-30T16:04:41.718Z,14.73
2022-08-30T16:07:11.926Z,11.25
2022-08-30T16:09:41.921Z,12.68
2022-08-30T16:12:10.095Z,12.18
2022-08-30T16:19:26.745Z,12.02
2022-08-30T16:21:54.237Z,12.70
2022-08-30T16:24:24.720Z,12.93
2022-08-30T16:26:53.818Z,9.27
2022-08-30T16:29:23.019Z,10.03
2022-08-30T16:31:51.862Z,11.40
2022-08-30T16:34:23.093Z,8.32
2022-08-30T16:39:34.108Z,12.07
2022-08-30T16:42:06.589Z,7.32
2022-08-30T16:44:34.354Z,9.63
2022-08-30T16:47:03.734Z,9.85
2022-08-30T16:49:33.109Z,11.63
2022-08-30T16:52:02.691Z,9.52
2022-08-30T16:54:33.250Z,10.68
2022-08-30T17:01:45.231Z,9.88
2022-08-30T17:04:19.284Z,9.02
2022-08-30T17:06:50.420Z,9.10
2022-08-30T17:09:22.267Z,8.40
2022-08-30T17:11:50.448Z,9.55
2022-08-30T17:14:28.234Z,10.23
2022-08-30T17:17:00.403Z,11.80
2022-08-30T17:22:14.654Z,10.65
2022-08-30T17:24:43.787Z,8.63
2022-08-30T17:27:12.940Z,8.73
2022-08-30T17:29:42.237Z,8.82
2022-08-30T17:32:09.598Z,10.40
2022-08-30T17:34:38.968Z,10.10
2022-08-30T17:37:08.688Z,9.95
2022-08-30T17:44:29.836Z,10.63
2022-08-30T17:47:05.664Z,10.88
2022-08-30T17:49:33.900Z,9.50
2022-08-30T17:52:04.155Z,11.75
2022-08-30T17:54:37.285Z,9.07
2022-08-30T17:57:13.509Z,9.82
2022-08-30T17:59:42.341Z,10.90
2022-08-30T18:04:47.667Z,9.32
2022-08-30T18:07:18.080Z,7.75
2022-08-30T18:09:49.457Z,10.13
2022-08-30T18:12:16.782Z,11.93
2022-08-30T18:14:44.271Z,11.27
2022-08-30T18:17:13.749Z,10.95
2022-08-30T18:19:45.885Z,7.07
2022-08-30T18:22:16.436Z,11.00
2022-08-30T18:32:13.861Z,8.30
2022-08-30T18:34:43.466Z,9.88
2022-08-30T18:37:13.791Z,8.65
2022-08-30T18:39:44.269Z,6.72
2022-08-30T18:42:13.468Z,8.75
2022-08-30T18:44:43.490Z,9.40
2022-08-30T18:47:13.204Z,11.02
2022-08-30T18:49:46.198Z,9.00
2022-08-30T18:57:24.782Z,9.05
2022-08-30T18:59:54.173Z,5.50
2022-08-30T19:02:23.017Z,11.85
2022-08-30T19:04:55.567Z,7.28
2022-08-30T19:07:26.669Z,9.18
2022-08-30T19:09:59.123Z,6.53
2022-08-30T19:12:27.642Z,9.75
2022-08-30T19:19:46.297Z,7.22
2022-08-30T19:22:26.673Z,7.05
2022-08-30T19:24:54.988Z,9.80
2022-08-30T19:27:37.564Z,8.82
2022-08-30T19:30:15.183Z,7.70
2022-08-30T19:32:47.180Z,7.38
2022-08-30T19:35:15.367Z,6.80
2022-08-30T19:40:23.774Z,8.30
2022-08-30T19:42:54.562Z,5.55
2022-08-30T19:45:23.747Z,6.37
2022-08-30T19:47:54.649Z,6.07
2022-08-30T19:50:25.697Z,9.40
2022-08-30T19:52:55.198Z,9.40
2022-08-30T19:55:28.396Z,6.18
2022-08-30T20:03:03.168Z,9.25
2022-08-30T20:05:33.218Z,6.05
2022-08-30T20:08:00.914Z,8.00
2022-08-30T20:10:30.216Z,7.20
2022-08-30T20:13:03.818Z,10.50
2022-08-30T20:15:34.541Z,7.53
2022-08-30T20:18:06.151Z,7.82
2022-08-30T20:29:34.363Z,9.82
2022-08-30T20:32:03.323Z,8.82
2022-08-30T20:34:30.806Z,11.32
2022-08-30T20:36:59.707Z,7.73
2022-08-30T20:39:27.065Z,9.75
2022-08-30T20:41:54.574Z,10.85
2022-08-30T20:44:23.929Z,7.95
2022-08-30T20:46:54.689Z,9.52
2022-08-30T20:54:34.753Z,8.77
2022-08-30T20:57:04.745Z,8.55
2022-08-30T20:59:36.482Z,9.35
2022-08-30T21:02:04.547Z,7.93
2022-08-30T21:04:33.827Z,7.78
2022-08-30T21:07:02.940Z,7.45
2022-08-30T21:09:30.335Z,8.37
2022-08-30T21:12:00.172Z,5.25
2022-08-30T21:19:45.473Z,6.05
2022-08-30T21:22:14.697Z,7.15
2022-08-30T21:24:43.913Z,8.50
2022-08-30T21:27:13.792Z,8.75
2022-08-30T21:29:42.502Z,10.98
2022-08-30T21:32:10.109Z,7.72
2022-08-30T21:34:56.085Z,9.48
2022-08-30T21:41:57.281Z,8.05
2022-08-30T21:44:26.744Z,8.30
2022-08-30T21:46:55.244Z,9.50
2022-08-30T21:49:24.640Z,8.15
2022-08-30T21:51:55.230Z,6.55
2022-08-30T21:54:25.844Z,8.57
2022-08-30T21:57:03.834Z,11.50
2022-08-30T22:02:54.503Z,12.32
2022-08-30T22:05:23.563Z,8.05
2022-08-30T22:07:52.859Z,8.52
2022-08-30T22:10:24.249Z,8.85
2022-08-30T22:12:53.604Z,7.03
2022-08-30T22:15:23.863Z,6.55
2022-08-30T22:17:54.834Z,7.80
2022-08-30T22:20:24.594Z,6.90
2022-08-30T22:27:55.276Z,7.03
2022-08-30T22:30:24.203Z,8.00
2022-08-30T22:32:53.631Z,7.50
2022-08-30T22:35:29.170Z,7.97
2022-08-30T22:37:56.561Z,8.60
2022-08-30T22:40:24.949Z,6.07
2022-08-30T22:42:54.277Z,7.95
2022-08-30T22:49:09.805Z,9.17
2022-08-30T22:51:39.049Z,8.20
2022-08-30T22:54:08.161Z,6.73
2022-08-30T22:56:37.149Z,6.27
2022-08-30T22:59:05.887Z,7.85
2022-08-30T23:01:44.110Z,12.48
2022-08-30T23:04:14.387Z,8.80
2022-08-30T23:09:24.976Z,7.47
2022-08-30T23:11:54.261Z,9.13
2022-08-30T23:14:23.921Z,7.70
2022-08-30T23:16:53.395Z,8.18
2022-08-30T23:19:20.909Z,7.85
2022-08-30T23:21:50.979Z,8.80
2022-08-30T23:24:39.489Z,7.35
2022-08-30T23:36:14.105Z,10.13
2022-08-30T23:39:00.019Z,8.15
2022-08-30T23:41:46.152Z,8.60
2022-08-30T23:44:33.985Z,8.55
2022-08-30T23:47:19.983Z,7.22
2022-08-30T23:50:06.012Z,4.82
2022-08-30T23:52:54.159Z,7.38
